createdAt,value
2017-10-11T00:01:25.804Z,10.60
2017-10-11T00:03:55.525Z,10.60
2017-10-11T00:06:24.544Z,10.50
2017-10-11T00:08:53.603Z,10.60
2017-10-11T00:11:22.895Z,10.60
2017-10-11T00:13:52.105Z,10.50
2017-10-11T00:16:21.081Z,10.50
2017-10-11T00:18:50.253Z,10.50
2017-10-11T00:21:19.112Z,10.50
2017-10-11T00:23:48.766Z,10.50
2017-10-11T00:26:17.994Z,10.40
2017-10-11T00:28:47.272Z,10.40
2017-10-11T00:31:16.569Z,10.40
2017-10-11T00:33:47.534Z,10.40
2017-10-11T00:36:18.221Z,10.30
2017-10-11T00:38:47.384Z,10.30
2017-10-11T00:41:16.318Z,10.30
2017-10-11T00:43:45.346Z,10.40
2017-10-11T00:46:14.317Z,10.40
2017-10-11T00:48:42.686Z,10.40
2017-10-11T00:51:11.262Z,10.40
2017-10-11T00:53:39.651Z,10.40
2017-10-11T00:56:08.069Z,10.40
2017-10-11T00:58:37.309Z,10.40
2017-10-11T01:01:05.698Z,10.40
2017-10-11T01:03:34.614Z,10.40
2017-10-11T01:06:02.997Z,10.50
2017-10-11T01:08:31.396Z,10.50
2017-10-11T01:11:00.567Z,10.50
2017-10-11T01:13:28.967Z,10.50
2017-10-11T01:15:58.432Z,10.60
2017-10-11T01:18:26.898Z,10.60
2017-10-11T01:20:55.323Z,10.60
2017-10-11T01:23:24.513Z,10.80
2017-10-11T01:25:53.763Z,10.60
2017-10-11T01:28:22.384Z,10.60
2017-10-11T01:30:50.776Z,10.60
2017-10-11T01:33:19.210Z,10.50
2017-10-11T01:35:47.697Z,10.60
2017-10-11T01:38:16.151Z,10.80
2017-10-11T01:40:44.765Z,10.80
2017-10-11T01:43:13.159Z,10.80
2017-10-11T01:45:41.560Z,10.90
2017-10-11T01:48:10.736Z,10.80
2017-10-11T01:50:39.143Z,10.80
2017-10-11T01:53:08.592Z,10.90
2017-10-11T01:55:37.007Z,10.90
2017-10-11T01:58:05.457Z,10.90
2017-10-11T02:00:33.882Z,10.90
2017-10-11T02:03:03.040Z,10.80
2017-10-11T02:05:32.176Z,10.80
2017-10-11T02:08:01.323Z,10.90
2017-10-11T02:10:29.699Z,10.90
2017-10-11T02:12:58.139Z,10.80
2017-10-11T02:15:27.306Z,10.90
2017-10-11T02:17:55.763Z,10.80
2017-10-11T02:20:24.143Z,10.80
2017-10-11T02:22:52.515Z,10.80
2017-10-11T02:25:20.927Z,10.80
2017-10-11T02:27:49.326Z,10.90
2017-10-11T02:30:18.778Z,10.90
2017-10-11T02:32:47.211Z,10.90
2017-10-11T02:35:16.352Z,11.00
2017-10-11T02:37:44.813Z,11.00
2017-10-11T02:40:13.199Z,11.00
2017-10-11T02:42:41.627Z,11.00
2017-10-11T02:45:10.011Z,10.90
2017-10-11T02:47:38.387Z,10.90
2017-10-11T02:50:07.553Z,10.80
2017-10-11T02:52:35.936Z,10.80
2017-10-11T02:55:04.684Z,10.80
2017-10-11T02:57:33.123Z,10.80
2017-10-11T03:00:01.507Z,10.80
2017-10-11T03:02:29.906Z,10.80
2017-10-11T03:04:59.048Z,10.80
2017-10-11T03:07:27.719Z,10.80
2017-10-11T03:09:56.626Z,10.80
2017-10-11T03:12:25.009Z,10.80
2017-10-11T03:14:53.452Z,10.90
2017-10-11T03:17:21.866Z,10.90
2017-10-11T03:19:50.319Z,10.80
2017-10-11T03:22:18.711Z,10.90
2017-10-11T03:24:47.086Z,10.90
2017-10-11T03:27:15.551Z,10.90
2017-10-11T03:29:45.579Z,10.80
2017-10-11T03:32:14.038Z,10.80
2017-10-11T03:34:42.467Z,10.80
2017-10-11T03:37:10.916Z,10.70
2017-10-11T03:39:39.357Z,10.70
2017-10-11T03:42:07.735Z,10.70
2017-10-11T03:44:37.188Z,10.70
2017-10-11T03:47:05.577Z,10.70
2017-10-11T03:49:33.968Z,10.60
2017-10-11T03:52:02.385Z,10.60
2017-10-11T03:54:31.566Z,10.70
2017-10-11T03:57:00.751Z,10.70
2017-10-11T03:59:29.172Z,10.70
2017-10-11T04:01:57.560Z,10.60
2017-10-11T04:04:25.959Z,10.70
2017-10-11T04:06:54.350Z,10.60
2017-10-11T04:09:23.024Z,10.70
2017-10-11T04:11:51.458Z,10.80
2017-10-11T04:14:20.616Z,10.70
2017-10-11T04:16:49.049Z,10.70
2017-10-11T04:19:17.443Z,10.80
2017-10-11T04:21:46.163Z,10.70
2017-10-11T04:24:14.558Z,10.70
2017-10-11T04:26:42.986Z,10.60
2017-10-11T04:29:11.456Z,10.50
2017-10-11T04:31:39.861Z,10.40
2017-10-11T04:34:08.258Z,10.30
2017-10-11T04:36:36.684Z,10.30
2017-10-11T04:39:05.851Z,10.30
2017-10-11T04:41:34.260Z,10.30
2017-10-11T04:44:02.678Z,10.30
2017-10-11T04:46:31.058Z,10.20
2017-10-11T04:48:59.513Z,10.20
2017-10-11T04:51:27.897Z,10.10
2017-10-11T04:53:56.555Z,10.10
2017-10-11T04:56:26.415Z,10.00
2017-10-11T04:58:54.790Z,10.00
2017-10-11T05:01:23.222Z,10.10
2017-10-11T05:03:51.665Z,10.00
2017-10-11T05:06:20.561Z,10.10
2017-10-11T05:08:48.943Z,10.00
2017-10-11T05:11:17.327Z,10.00
2017-10-11T05:13:45.760Z,9.90
2017-10-11T05:16:14.166Z,9.80
2017-10-11T05:18:42.589Z,9.80
2017-10-11T05:21:11.727Z,9.80
2017-10-11T05:23:40.111Z,9.70
2017-10-11T05:26:08.773Z,9.70
2017-10-11T05:28:37.978Z,9.70
2017-10-11T05:31:06.413Z,9.60
2017-10-11T05:33:34.791Z,9.60
2017-10-11T05:36:03.151Z,9.60
2017-10-11T05:38:31.572Z,9.70
2017-10-11T05:40:59.949Z,9.60
2017-10-11T05:43:28.385Z,9.60
2017-10-11T05:45:56.885Z,9.60
2017-10-11T05:48:25.282Z,9.60
2017-10-11T05:50:54.438Z,9.60
2017-10-11T05:53:22.820Z,9.60
2017-10-11T05:55:51.479Z,9.60
2017-10-11T05:58:19.863Z,9.70
2017-10-11T06:00:48.254Z,9.70
2017-10-11T06:03:16.686Z,9.80
2017-10-11T06:05:45.102Z,9.70
2017-10-11T06:08:13.704Z,9.80
2017-10-11T06:10:42.428Z,9.80
2017-10-11T06:13:12.149Z,10.10
2017-10-11T06:15:40.664Z,10.10
2017-10-11T06:18:09.060Z,10.20
2017-10-11T06:20:37.735Z,10.30
2017-10-11T06:23:06.182Z,10.30
2017-10-11T06:25:35.410Z,10.40
2017-10-11T06:28:03.894Z,10.40
2017-10-11T06:30:32.270Z,10.60
2017-10-11T06:33:01.072Z,10.70
2017-10-11T06:35:29.468Z,10.70
2017-10-11T06:37:58.646Z,10.90
2017-10-11T06:40:27.095Z,10.80
2017-10-11T06:42:55.499Z,11.00
2017-10-11T06:45:24.278Z,11.20
2017-10-11T06:47:52.665Z,11.60
2017-10-11T06:50:21.042Z,11.90
2017-10-11T06:52:49.447Z,12.00
2017-10-11T06:55:17.824Z,12.40
2017-10-11T06:57:46.258Z,12.60
2017-10-11T07:00:14.656Z,12.20
2017-10-11T07:02:43.036Z,12.00
2017-10-11T07:05:11.431Z,12.00
2017-10-11T07:07:39.814Z,12.00
2017-10-11T07:10:08.474Z,12.00
2017-10-11T07:12:37.608Z,11.90
2017-10-11T07:15:06.924Z,11.50
2017-10-11T07:17:35.346Z,11.50
2017-10-11T07:20:03.833Z,11.70
2017-10-11T07:22:32.617Z,12.10
2017-10-11T07:25:01.011Z,12.20
2017-10-11T07:27:31.821Z,12.40
2017-10-11T07:30:00.274Z,12.50
2017-10-11T07:32:28.665Z,12.60
2017-10-11T07:34:57.455Z,13.40
2017-10-11T07:37:25.843Z,14.50
2017-10-11T07:39:54.281Z,15.30
2017-10-11T07:42:23.468Z,17.30
2017-10-11T07:44:52.647Z,18.20
2017-10-11T07:47:21.532Z,18.20
2017-10-11T07:49:49.964Z,19.60
2017-10-11T07:52:18.371Z,20.00
2017-10-11T07:54:46.779Z,20.70
2017-10-11T07:57:15.233Z,20.50
2017-10-11T07:59:43.838Z,20.50
2017-10-11T08:02:12.235Z,21.00
2017-10-11T08:04:41.391Z,22.60
2017-10-11T08:07:09.852Z,22.60
2017-10-11T08:09:38.251Z,23.30
2017-10-11T08:12:07.135Z,23.00
2017-10-11T08:14:35.542Z,23.00
2017-10-11T08:17:03.922Z,23.70
2017-10-11T08:19:32.329Z,23.90
2017-10-11T08:22:01.473Z,24.30
2017-10-11T08:24:29.945Z,24.20
2017-10-11T08:26:58.322Z,22.50
2017-10-11T08:29:26.728Z,22.00
2017-10-11T08:31:55.140Z,21.30
2017-10-11T08:34:24.283Z,22.00
2017-10-11T08:36:52.878Z,21.90
2017-10-11T08:39:21.256Z,22.60
2017-10-11T08:41:49.635Z,21.80
2017-10-11T08:44:18.034Z,22.20
2017-10-11T08:46:46.424Z,21.50
2017-10-11T08:49:15.876Z,21.50
2017-10-11T08:51:44.270Z,21.50
2017-10-11T08:54:12.651Z,22.00
2017-10-11T08:56:41.056Z,23.50
2017-10-11T08:59:09.439Z,23.60
2017-10-11T09:01:37.885Z,23.30
2017-10-11T09:04:06.268Z,24.60
2017-10-11T09:06:34.646Z,24.70
2017-10-11T09:09:03.056Z,24.60
2017-10-11T09:11:31.437Z,24.70
2017-10-11T09:14:00.955Z,23.90
2017-10-11T09:16:30.111Z,22.80
2017-10-11T09:18:58.570Z,22.80
2017-10-11T09:21:26.967Z,23.40
2017-10-11T09:23:55.343Z,25.60
2017-10-11T09:26:23.855Z,25.70
2017-10-11T09:28:52.232Z,25.40
2017-10-11T09:31:20.607Z,24.10
2017-10-11T09:33:49.012Z,23.90
2017-10-11T09:36:18.166Z,25.00
2017-10-11T09:38:46.710Z,25.00
2017-10-11T09:41:15.084Z,25.40
2017-10-11T09:43:43.460Z,25.10
2017-10-11T09:46:11.887Z,25.20
2017-10-11T09:48:40.283Z,25.10
2017-10-11T09:51:08.839Z,25.90
2017-10-11T09:53:37.215Z,27.50
2017-10-11T09:56:05.602Z,28.00
2017-10-11T09:58:34.002Z,27.10
2017-10-11T10:01:03.156Z,26.00
2017-10-11T10:03:31.951Z,25.90
2017-10-11T10:06:00.345Z,25.80
2017-10-11T10:08:28.727Z,25.80
2017-10-11T10:10:57.964Z,27.40
2017-10-11T10:13:27.104Z,28.50
2017-10-11T10:15:55.938Z,28.40
2017-10-11T10:18:25.084Z,26.70
2017-10-11T10:20:53.468Z,26.60
2017-10-11T10:23:21.870Z,25.80
2017-10-11T10:25:51.141Z,25.40
2017-10-11T10:28:19.725Z,25.40
2017-10-11T10:30:48.110Z,26.30
2017-10-11T10:33:16.511Z,26.90
2017-10-11T10:35:45.703Z,27.50
2017-10-11T10:38:14.144Z,27.50
2017-10-11T10:40:42.599Z,28.30
2017-10-11T10:43:10.978Z,27.70
2017-10-11T10:45:40.138Z,26.90
2017-10-11T10:48:08.563Z,26.90
2017-10-11T10:50:36.939Z,26.50
2017-10-11T10:53:06.394Z,26.00
2017-10-11T10:55:34.788Z,26.00
2017-10-11T10:58:03.263Z,25.20
2017-10-11T11:00:31.877Z,25.00
2017-10-11T11:03:01.019Z,26.70
2017-10-11T11:05:29.754Z,26.70
2017-10-11T11:07:58.899Z,25.80
2017-10-11T11:10:27.276Z,25.70
2017-10-11T11:12:55.683Z,24.30
2017-10-11T11:15:24.062Z,24.70
2017-10-11T11:17:52.490Z,24.20
2017-10-11T11:20:20.910Z,24.30
2017-10-11T11:22:50.948Z,24.20
2017-10-11T11:25:19.345Z,24.50
2017-10-11T11:27:48.563Z,25.10
2017-10-11T11:30:16.991Z,25.10
2017-10-11T11:32:45.376Z,25.60
2017-10-11T11:35:13.754Z,27.40
2017-10-11T11:37:42.159Z,26.00
2017-10-11T11:40:11.304Z,26.80
2017-10-11T11:42:39.876Z,26.80
2017-10-11T11:45:08.257Z,25.80
2017-10-11T11:47:36.643Z,25.70
2017-10-11T11:50:05.127Z,25.00
2017-10-11T11:52:33.504Z,25.10
2017-10-11T11:55:02.077Z,26.00
2017-10-11T11:57:30.449Z,26.00
2017-10-11T11:59:59.214Z,25.80
2017-10-11T12:02:27.616Z,26.10
2017-10-11T12:04:55.999Z,24.30
2017-10-11T12:07:24.570Z,24.50
2017-10-11T12:09:53.071Z,24.00
2017-10-11T12:12:21.462Z,24.30
2017-10-11T12:14:49.867Z,24.20
2017-10-11T12:17:19.019Z,24.20
2017-10-11T12:19:47.479Z,24.20
2017-10-11T12:22:15.884Z,24.30
2017-10-11T12:24:44.259Z,24.70
2017-10-11T12:27:12.676Z,24.60
2017-10-11T12:29:41.815Z,26.00
2017-10-11T12:32:10.189Z,26.00
2017-10-11T12:34:38.607Z,26.30
2017-10-11T12:37:06.987Z,26.80
2017-10-11T12:39:35.394Z,27.20
2017-10-11T12:42:04.551Z,27.50
2017-10-11T12:44:32.940Z,27.50
2017-10-11T12:47:01.351Z,27.10
2017-10-11T12:49:30.494Z,27.10
2017-10-11T12:51:58.975Z,27.10
2017-10-11T12:54:27.355Z,26.80
2017-10-11T12:56:55.756Z,26.80
2017-10-11T12:59:24.176Z,26.80
2017-10-11T13:01:52.555Z,26.40
2017-10-11T13:04:21.080Z,26.40
2017-10-11T13:06:49.455Z,26.90
2017-10-11T13:09:17.832Z,26.60
2017-10-11T13:11:46.296Z,25.30
2017-10-11T13:14:14.674Z,25.60
2017-10-11T13:16:43.099Z,25.50
2017-10-11T13:19:11.478Z,25.80
2017-10-11T13:21:41.368Z,25.10
2017-10-11T13:24:09.798Z,25.10
2017-10-11T13:26:38.186Z,24.60
2017-10-11T13:29:06.862Z,25.00
2017-10-11T13:31:36.009Z,24.60
2017-10-11T13:34:04.386Z,24.70
2017-10-11T13:36:32.787Z,24.30
2017-10-11T13:39:01.168Z,24.40
2017-10-11T13:41:29.751Z,23.80
2017-10-11T13:43:58.155Z,23.70
2017-10-11T13:46:27.300Z,23.60
2017-10-11T13:48:55.705Z,23.60
2017-10-11T13:51:24.792Z,23.40
2017-10-11T13:53:53.448Z,23.40
2017-10-11T13:56:21.847Z,23.20
2017-10-11T13:58:50.280Z,22.80
2017-10-11T14:01:18.727Z,22.60
2017-10-11T14:03:47.117Z,22.20
2017-10-11T14:06:16.404Z,21.40
2017-10-11T14:08:45.568Z,21.50
2017-10-11T14:11:13.999Z,21.50
2017-10-11T14:13:43.169Z,21.20
2017-10-11T14:16:11.556Z,21.10
2017-10-11T14:18:40.923Z,20.90
2017-10-11T14:21:09.454Z,20.90
2017-10-11T14:23:38.624Z,20.70
2017-10-11T14:26:07.139Z,20.60
2017-10-11T14:28:36.307Z,20.50
2017-10-11T14:31:04.731Z,20.50
2017-10-11T14:33:33.211Z,20.50
2017-10-11T14:36:01.599Z,20.60
2017-10-11T14:38:30.608Z,20.50
2017-10-11T14:40:59.039Z,20.60
2017-10-11T14:43:28.184Z,20.60
2017-10-11T14:45:56.587Z,20.50
2017-10-11T14:48:25.046Z,20.80
2017-10-11T14:50:53.423Z,20.80
2017-10-11T14:53:21.803Z,21.00
2017-10-11T14:55:50.207Z,21.00
2017-10-11T14:58:18.602Z,20.90
2017-10-11T15:00:47.771Z,20.90
2017-10-11T15:03:16.358Z,20.90
2017-10-11T15:05:45.519Z,21.10
2017-10-11T15:08:13.966Z,21.10
2017-10-11T15:10:42.412Z,21.00
2017-10-11T15:13:10.821Z,20.90
2017-10-11T15:15:39.994Z,20.90
2017-10-11T15:18:08.419Z,20.90
2017-10-11T15:20:36.809Z,21.10
2017-10-11T15:23:05.350Z,21.10
2017-10-11T15:25:33.781Z,21.10
2017-10-11T15:28:02.192Z,20.90
2017-10-11T15:30:30.570Z,20.90
2017-10-11T15:32:59.001Z,20.80
2017-10-11T15:35:27.421Z,20.80
2017-10-11T15:37:55.802Z,20.70
2017-10-11T15:40:24.281Z,20.40
2017-10-11T15:42:52.682Z,20.20
2017-10-11T15:45:21.831Z,20.00
2017-10-11T15:47:50.283Z,19.90
2017-10-11T15:50:18.688Z,19.80
2017-10-11T15:52:48.117Z,19.70
2017-10-11T15:55:16.544Z,19.70
2017-10-11T15:57:44.976Z,19.40
2017-10-11T16:00:13.379Z,19.30
2017-10-11T16:02:41.865Z,19.10
2017-10-11T16:05:11.032Z,18.90
2017-10-11T16:07:40.039Z,18.80
2017-10-11T16:10:10.058Z,18.50
2017-10-11T16:12:38.477Z,18.50
2017-10-11T16:15:06.875Z,18.30
2017-10-11T16:17:35.311Z,18.20
2017-10-11T16:20:04.613Z,17.90
2017-10-11T16:22:33.707Z,17.80
2017-10-11T16:25:02.885Z,17.60
2017-10-11T16:27:31.287Z,17.60
2017-10-11T16:30:00.843Z,17.40
2017-10-11T16:32:29.261Z,17.30
2017-10-11T16:34:57.650Z,17.30
2017-10-11T16:37:26.801Z,17.00
2017-10-11T16:39:55.283Z,17.00
2017-10-11T16:42:23.710Z,16.90
2017-10-11T16:44:52.878Z,16.60
2017-10-11T16:47:21.287Z,16.60
2017-10-11T16:49:50.440Z,16.40
2017-10-11T16:52:18.834Z,16.30
2017-10-11T16:54:47.259Z,16.30
2017-10-11T16:57:15.658Z,16.10
2017-10-11T16:59:45.036Z,16.00
2017-10-11T17:02:16.684Z,15.90
2017-10-11T17:04:48.461Z,15.70
2017-10-11T17:07:22.052Z,15.70
2017-10-11T17:09:54.419Z,15.60
2017-10-11T17:12:23.193Z,15.50
2017-10-11T17:14:52.692Z,15.40
2017-10-11T17:17:21.330Z,15.30
2017-10-11T17:19:50.117Z,15.30
2017-10-11T17:22:18.652Z,15.20
2017-10-11T17:24:47.088Z,15.10
2017-10-11T17:27:15.881Z,15.00
2017-10-11T17:29:44.367Z,14.90
2017-10-11T17:32:13.499Z,14.80
2017-10-11T17:35:03.610Z,14.70
2017-10-11T17:37:44.598Z,14.70
2017-10-11T17:40:34.417Z,14.60
2017-10-11T17:43:24.155Z,14.50
2017-10-11T17:45:54.713Z,14.40
2017-10-11T17:48:23.930Z,14.30
2017-10-11T17:50:52.376Z,14.30
2017-10-11T17:53:20.791Z,14.20
2017-10-11T17:55:50.020Z,14.00
2017-10-11T17:58:18.491Z,14.00
2017-10-11T18:00:46.917Z,13.90
2017-10-11T18:03:15.542Z,13.90
2017-10-11T18:05:46.263Z,13.70
2017-10-11T18:08:15.703Z,13.70
2017-10-11T18:10:46.627Z,13.60
2017-10-11T18:13:19.749Z,13.50
2017-10-11T18:15:48.679Z,13.50
2017-10-11T18:18:17.291Z,13.50
2017-10-11T18:20:46.798Z,13.40
2017-10-11T18:23:16.834Z,13.30
2017-10-11T18:25:46.369Z,13.30
2017-10-11T18:28:14.902Z,13.30
2017-10-11T18:30:44.417Z,13.20
2017-10-11T18:33:16.621Z,13.20
2017-10-11T18:35:45.098Z,13.20
2017-10-11T18:38:13.706Z,13.20
2017-10-11T18:40:42.086Z,13.20
2017-10-11T18:43:12.602Z,13.20
2017-10-11T18:45:41.637Z,13.20
2017-10-11T18:48:10.011Z,13.20
2017-10-11T18:50:38.539Z,13.10
2017-10-11T18:53:06.924Z,13.00
2017-10-11T18:55:35.329Z,13.00
2017-10-11T18:58:03.778Z,12.90
2017-10-11T19:00:32.184Z,12.80
2017-10-11T19:06:00.461Z,12.70
2017-10-11T19:08:30.366Z,12.50
2017-10-11T19:10:59.134Z,12.50
2017-10-11T19:13:27.510Z,12.60
2017-10-11T19:15:55.887Z,12.60
2017-10-11T19:18:25.112Z,12.50
2017-10-11T19:20:54.410Z,12.50
2017-10-11T19:23:24.799Z,12.30
2017-10-11T19:25:53.396Z,12.20
2017-10-11T19:28:21.970Z,12.30
2017-10-11T19:30:51.115Z,12.30
2017-10-11T19:33:19.617Z,12.20
2017-10-11T19:35:54.177Z,12.20
2017-10-11T19:38:23.273Z,12.10
2017-10-11T19:40:53.092Z,12.10
2017-10-11T19:43:22.165Z,12.00
2017-10-11T19:45:51.125Z,12.00
2017-10-11T19:48:20.066Z,11.90
2017-10-11T19:50:48.533Z,11.90
2017-10-11T19:53:17.629Z,11.90
2017-10-11T19:55:46.051Z,11.80
2017-10-11T19:58:15.758Z,11.70
2017-10-11T20:00:46.891Z,11.60
2017-10-11T20:03:15.294Z,11.60
2017-10-11T20:05:44.826Z,11.50
2017-10-11T20:08:13.220Z,11.50
2017-10-11T20:10:41.599Z,11.50
2017-10-11T20:13:10.001Z,11.40
2017-10-11T20:15:38.407Z,11.40
2017-10-11T20:18:07.707Z,11.40
2017-10-11T20:20:41.957Z,11.40
2017-10-11T20:23:10.704Z,11.40
2017-10-11T20:25:40.267Z,11.40
2017-10-11T20:28:10.516Z,11.40
2017-10-11T20:30:39.032Z,11.40
2017-10-11T20:33:07.667Z,11.40
2017-10-11T20:35:36.777Z,11.40
2017-10-11T20:38:05.191Z,11.30
2017-10-11T20:40:34.650Z,11.20
2017-10-11T20:43:04.535Z,11.20
2017-10-11T20:45:32.979Z,11.20
2017-10-11T20:48:02.459Z,11.10
2017-10-11T20:50:31.359Z,11.10
2017-10-11T20:52:59.916Z,11.10
2017-10-11T20:55:30.367Z,11.00
2017-10-11T20:57:59.034Z,11.00
2017-10-11T21:00:27.434Z,10.90
2017-10-11T21:02:55.831Z,10.90
2017-10-11T21:05:25.068Z,10.90
2017-10-11T21:07:53.433Z,10.90
2017-10-11T21:10:21.862Z,10.90
2017-10-11T21:12:50.295Z,10.90
2017-10-11T21:15:18.657Z,10.90
2017-10-11T21:17:47.051Z,10.80
2017-10-11T21:20:15.415Z,10.80
2017-10-11T21:22:44.623Z,10.70
2017-10-11T21:25:13.003Z,10.70
2017-10-11T21:27:41.385Z,10.60
2017-10-11T21:30:09.806Z,10.60
2017-10-11T21:32:39.508Z,10.60
2017-10-11T21:35:08.498Z,10.60
2017-10-11T21:37:37.177Z,10.50
2017-10-11T21:40:05.587Z,10.30
2017-10-11T21:42:34.010Z,10.40
2017-10-11T21:45:02.582Z,10.30
2017-10-11T21:47:31.921Z,10.40
2017-10-11T21:50:00.776Z,10.30
2017-10-11T21:52:29.666Z,10.20
2017-10-11T21:54:58.490Z,10.10
2017-10-11T21:57:26.971Z,10.10
2017-10-11T21:59:56.029Z,10.10
2017-10-11T22:02:24.453Z,10.10
2017-10-11T22:04:53.648Z,10.10
2017-10-11T22:07:22.104Z,10.10
2017-10-11T22:09:50.961Z,10.10
2017-10-11T22:12:19.973Z,10.10
2017-10-11T22:14:48.891Z,10.20
2017-10-11T22:17:17.781Z,10.20
2017-10-11T22:19:46.363Z,10.20
2017-10-11T22:22:14.762Z,10.30
2017-10-11T22:24:43.388Z,10.20
2017-10-11T22:27:11.980Z,10.30
2017-10-11T22:29:40.695Z,10.20
2017-10-11T22:32:10.631Z,10.20
2017-10-11T22:34:39.434Z,10.20
2017-10-11T22:37:08.458Z,10.20
2017-10-11T22:39:37.200Z,10.20
2017-10-11T22:42:06.466Z,10.00
2017-10-11T22:44:34.882Z,10.00
2017-10-11T22:47:03.338Z,10.00
2017-10-11T22:49:31.759Z,10.10
2017-10-11T22:52:00.911Z,10.00
2017-10-11T22:54:29.282Z,10.00
2017-10-11T22:56:57.666Z,9.90
2017-10-11T22:59:26.048Z,9.90
2017-10-11T23:01:54.693Z,9.90
2017-10-11T23:04:23.828Z,9.80
2017-10-11T23:06:52.205Z,9.80
2017-10-11T23:09:20.586Z,9.70
2017-10-11T23:11:48.965Z,9.70
2017-10-11T23:14:17.397Z,9.70
2017-10-11T23:16:46.525Z,9.60
2017-10-11T23:19:14.891Z,9.60
2017-10-11T23:21:43.294Z,9.60
2017-10-11T23:24:11.667Z,9.60
2017-10-11T23:26:40.077Z,9.40
2017-10-11T23:29:08.437Z,9.40
2017-10-11T23:31:36.805Z,9.40
2017-10-11T23:34:05.382Z,9.30
2017-10-11T23:36:33.745Z,9.30
2017-10-11T23:39:02.105Z,9.20
2017-10-11T23:41:31.272Z,9.20
2017-10-11T23:43:59.665Z,9.20
2017-10-11T23:46:28.116Z,9.20
2017-10-11T23:48:56.562Z,9.20
2017-10-11T23:51:24.950Z,9.20
2017-10-11T23:53:53.316Z,9.20
2017-10-11T23:56:21.721Z,9.10
2017-10-11T23:58:50.090Z,9.10
